Terminal Aerodrome Forecast
Issued by NWS Melbourne, FL

Home | Current Version | Previous Version | Text Only | Print | Product List | Glossary On
Versions: 1 2 3 4 5 6 7 8 9 10 11 12 13 14 15 16 17 18 19 20 21 22 23 24 25 26
502
FTUS42 KMLB 030005 AAA
TAFMCO
TAF AMD
KMCO 030005Z 0300/0324 12010KT P6SM VCTS FEW040CB SCT060 BKN250
      TEMPO 0301/0303 VRB15G30KT 1SM +TSRA BKN020CB
     FM030300 18004KT P6SM BKN250
     FM031500 23010KT P6SM SCT025
     FM031800 24009KT P6SM VCTS BKN035CB=

USA.gov is the U.S. government's official web portal to all federal, state and local government web resources and services.